Latest Weather Observations for Edinburgh

IDS60901

Issued at 2:41 pm CDT Monday 22 December 2014 (issued every 10 minutes, with the page automatically refreshed every 10 minutes)

About weather observations | Map of Adelaide area stations | Latest observations for Adelaide area | Other Formats
Station Details ID: 023083 Name: EDINBURGH RAAF Lat: -34.71 Lon: 138.62 Height: 16.54 m
Data from the previous 72 hours. | See also: Recent months at Edinburgh
Date/Time
CDT
Tmp

°C
App
Tmp
°C
Dew
Point
°C
Rel
Hum
%
Delta-T

°C
Wind Press
QNH
hPa
Press
MSL
hPa
Rain
since
9 am
mm
Dir
 
Spd
km/h
Gust
km/h
Spd
kts
Gust
kts
22/02:30pm 23.8 23.1 15.3 59 5.1 SE 13 19 7 10 1007.0 1007.0 0.0
22/02:00pm 23.2 23.8 15.8 63 4.5 SSE 7 11 4 6 1008.7 1008.6 0.0
22/01:30pm 22.6 22.9 15.9 66 4.0 SSW 9 13 5 7 1009.9 1009.8 0.0
22/01:00pm 22.3 21.0 17.2 73 3.1 WSW 20 26 11 14 1010.4 1010.3 0.0
22/12:30pm 23.7 23.1 16.7 65 4.3 W 15 19 8 10 1010.1 1010.0 0.0
22/12:00pm 22.9 22.3 16.7 68 3.8 NNW 15 20 8 11 1010.4 1010.3 0.0
22/11:30am 23.2 20.8 17.4 70 3.6 WSW 26 33 14 18 1009.5 1009.4 0.0
22/11:00am 25.0 23.9 13.2 48 6.9 N 11 24 6 13 1009.3 1009.2 0.0
22/10:30am 24.2 23.5 13.1 50 6.4 SSE 9 13 5 7 1008.1 1008.1 0.0
22/10:00am 24.3 24.3 14.1 53 6.0 W 7 11 4 6 1008.1 1008.1 0.0
22/09:30am 23.6 23.0 13.5 53 5.9 WSW 9 20 5 11 1007.6 1007.6 0.0
22/09:00am 22.6 20.6 12.8 54 5.6 NW 15 24 8 13 1006.9 1006.9 0.0
22/08:30am 22.6 21.7 12.5 53 5.8 W 9 13 5 7 1006.5 1006.5 0.0
22/08:00am 22.3 22.1 14.7 62 4.5 SSE 9 13 5 7 1006.0 1006.0 0.0
22/07:30am 21.7 21.9 14.1 62 4.4 SSW 6 9 3 5 1006.3 1006.3 0.0
22/07:00am 20.6 20.6 15.2 71 3.2 SW 9 11 5 6 1006.1 1006.1 0.0
22/06:30am 20.2 19.1 14.3 69 3.4 NW 13 17 7 9 1006.0 1006.0 0.0
22/06:00am 24.3 21.5 7.0 33 9.0 NE 11 15 6 8 1005.8 1005.8 0.0
22/05:30am 25.2 21.3 6.9 31 9.6 E 17 22 9 12 1005.2 1005.2 0.0
22/05:00am 23.0 22.4 13.5 55 5.5 ESE 9 11 5 6 1005.5 1005.5 0.0
22/04:30am 21.8 22.1 14.9 65 4.1 E 7 9 4 5 1005.9 1005.9 0.0
22/04:00am 20.5 20.7 14.6 69 3.4 NE 7 9 4 5 1006.2 1006.2 0.0
22/03:30am 21.0 20.4 14.6 67 3.8 NNE 11 15 6 8 1006.5 1006.5 0.0
22/03:00am 22.0 21.3 14.4 62 4.5 NNE 11 15 6 8 1006.5 1006.5 0.0
22/02:30am 23.7 23.7 15.2 59 5.1 ESE 9 15 5 8 1007.2 1007.2 0.0
22/02:00am 22.6 22.9 15.9 66 4.0 N 9 11 5 6 1007.8 1007.8 0.0
22/01:30am 22.9 21.9 15.7 64 4.3 WNW 15 17 8 9 1007.8 1007.8 0.0
22/01:00am 24.8 23.9 13.7 50 6.5 NW 11 17 6 9 1007.8 1007.8 0.0
22/12:30am 27.2 25.0 10.8 36 9.3 SE 13 17 7 9 1007.5 1007.5 0.0
22/12:00am 26.2 26.1 15.0 50 6.8 SE 9 11 5 6 1008.4 1008.4 0.0
 
Date/Time
CDT
Tmp

°C
App
Tmp
°C
Dew
Point
°C
Rel
Hum
%
Delta-T

°C
Wind Press
QNH
hPa
Press
MSL
hPa
Rain
since
9 am
mm
Dir
 
Spd
km/h
Gust
km/h
Spd
kts
Gust
kts
21/11:30pm 26.4 25.8 14.5 48 7.1 S 11 17 6 9 1009.0 1008.9 0.0
21/11:00pm 25.9 26.8 16.2 55 6.0 SE 6 13 3 7 1009.0 1008.9 0.0
21/10:30pm 25.7 25.2 16.0 55 5.9 WNW 13 20 7 11 1009.6 1009.5 0.0
21/10:00pm 28.5 24.4 10.2 32 10.3 NW 22 41 12 22 1009.4 1009.3 0.0
21/09:30pm 29.3 28.0 6.0 23 12.3 ESE 2 7 1 4 1008.5 1008.5 0.0
21/09:00pm 29.5 26.4 7.4 25 12.0 E 13 19 7 10 1008.2 1008.2 0.0
21/08:30pm 30.1 26.6 7.3 24 12.4 ESE 15 22 8 12 1007.8 1007.8 0.0
21/08:00pm 30.2 27.3 9.7 28 11.5 ESE 15 22 8 12 1007.7 1007.7 0.0
21/07:30pm 31.0 27.4 10.4 28 11.8 ESE 20 28 11 15 1007.9 1007.9 0.0
21/07:00pm 33.4 29.5 1.3 13 16.0 SSE 11 13 6 7 1007.8 1007.8 0.0
21/06:30pm 33.6 29.4 1.4 13 16.2 S 13 17 7 9 1007.7 1007.7 0.0
21/06:00pm 33.6 28.8 2.4 14 15.9 SSW 17 22 9 12 1007.6 1007.6 0.0
21/05:30pm 33.9 29.3 3.6 15 15.8 SW 17 22 9 12 1007.8 1007.8 0.0
21/05:00pm 35.0 30.7 3.5 14 16.5 SSW 15 24 8 13 1008.1 1008.1 0.0
21/04:30pm 34.9 29.7 3.5 14 16.4 SSW 20 28 11 15 1008.5 1008.5 0.0
21/04:00pm 34.5 29.4 4.1 15 16.0 SSW 20 30 11 16 1008.9 1008.8 0.0
21/03:30pm 33.0 27.8 5.5 18 14.7 SSW 22 33 12 18 1009.2 1009.1 0.0
21/03:00pm 34.8 29.4 6.2 17 15.6 SW 24 32 13 17 1009.4 1009.3 0.0
21/02:30pm 34.7 27.2 3.3 14 16.4 WSW 32 39 17 21 1009.6 1009.5 0.0
21/02:00pm 35.6 27.3 4.0 14 16.7 WSW 37 50 20 27 1010.0 1009.9 0.0
21/01:30pm 36.1 29.1 2.2 12 17.5 W 28 37 15 20 1010.2 1010.1 0.0
21/01:00pm 35.9 28.7 3.2 13 17.1 W 30 41 16 22 1010.4 1010.3 0.0
21/12:30pm 35.2 27.7 3.7 14 16.5 W 32 37 17 20 1010.6 1010.5 0.0
21/12:00pm 34.3 26.9 4.0 15 15.9 W 32 41 17 22 1010.9 1010.8 0.0
21/11:30am 35.8 29.2 2.0 12 17.3 NW 26 37 14 20 1010.9 1010.8 0.0
21/11:00am 35.0 28.3 1.4 12 17.0 NNW 26 35 14 19 1010.9 1010.8 0.0
21/10:30am 34.6 28.4 2.2 13 16.6 NNW 24 33 13 18 1011.1 1011.0 0.0
21/10:00am 33.2 27.0 2.1 14 15.7 NNW 24 33 13 18 1011.2 1011.1 0.0
21/09:30am 32.1 26.8 3.1 16 14.8 NNE 20 30 11 16 1011.4 1011.3 0.0
21/09:00am 30.1 24.2 4.0 19 13.4 NNE 24 32 13 17 1011.4 1011.3 0.0
21/08:30am 28.4 22.4 5.3 23 12.0 NE 26 32 14 17 1011.5 1011.4 0.0
21/08:00am 27.1 21.1 5.4 25 11.2 NE 26 33 14 18 1011.5 1011.4 0.0
21/07:30am 25.9 20.3 5.5 27 10.5 NE 24 30 13 16 1011.2 1011.1 0.0
21/07:00am 21.4 19.6 9.6 47 6.3 NE 9 17 5 9 1011.1 1011.0 0.0
21/06:30am 15.7 15.5 8.9 64 3.5 CALM 0 0 0 0 1011.0 1010.9 0.0
21/06:00am 15.2 15.0 8.9 66 3.2 CALM 0 0 0 0 1010.9 1010.8 0.0
21/05:30am 16.2 16.0 9.2 63 3.6 CALM 0 0 0 0 1010.9 1010.8 0.0
21/05:00am 17.5 16.4 9.9 61 4.0 S 6 7 3 4 1010.9 1010.8 0.0
21/04:30am 17.2 15.9 9.9 62 3.9 SSW 7 9 4 5 1011.0 1010.9 0.0
21/04:00am 15.8 14.1 9.7 67 3.2 WSW 9 11 5 6 1011.0 1010.9 0.0
21/03:30am 16.6 15.3 9.3 62 3.8 NNW 6 9 3 5 1011.0 1010.9 0.0
21/03:00am 18.1 16.7 9.5 57 4.5 NE 7 9 4 5 1011.1 1011.0 0.0
21/02:30am 18.5 17.0 9.3 55 4.8 NW 7 11 4 6 1011.8 1011.7 0.0
21/02:00am 21.7 18.5 8.6 43 6.9 NE 15 20 8 11 1012.1 1012.0 0.0
21/01:30am 18.8 17.4 9.6 55 4.9 NE 7 11 4 6 1011.8 1011.7 0.0
21/01:00am 18.9 18.1 9.7 55 4.9 WSW 4 7 2 4 1012.0 1011.9 0.0
21/12:30am 20.7 19.1 8.7 46 6.3 NNW 7 9 4 5 1012.3 1012.2 0.0
21/12:00am 22.3 21.4 9.1 43 7.1 E 4 9 2 5 1012.3 1012.2 0.0
 
Date/Time
CDT
Tmp

°C
App
Tmp
°C
Dew
Point
°C
Rel
Hum
%
Delta-T

°C
Wind Press
QNH
hPa
Press
MSL
hPa
Rain
since
9 am
mm
Dir
 
Spd
km/h
Gust
km/h
Spd
kts
Gust
kts
20/11:30pm 23.0 21.5 9.0 41 7.5 SE 7 11 4 6 1012.7 1012.6 0.0
20/11:00pm 22.1 21.6 10.6 48 6.3 SE 4 11 2 6 1013.0 1012.9 0.0
20/10:30pm 21.9 22.6 12.2 54 5.5 CALM 0 0 0 0 1013.3 1013.2 0.0
20/10:00pm 22.6 22.7 11.4 49 6.3 NNE 2 6 1 3 1013.5 1013.4 0.0
20/09:30pm 22.4 23.1 13.5 57 5.1 SSW 2 6 1 3 1013.7 1013.6 0.0
20/09:00pm 22.7 22.0 14.3 59 4.9 SW 11 13 6 7 1013.8 1013.7 0.0
20/08:30pm 24.2 22.1 13.7 52 6.1 WSW 17 20 9 11 1013.5 1013.4 0.0
20/08:00pm 27.7 24.4 6.5 26 11.2 SSW 13 15 7 8 1013.0 1012.9 0.0
20/07:30pm 28.3 24.6 6.4 25 11.6 SSW 15 19 8 10 1012.8 1012.7 0.0
20/07:00pm 28.2 24.6 6.9 26 11.3 SSW 15 19 8 10 1012.8 1012.7 0.0
20/06:30pm 29.0 25.6 5.8 23 12.2 SW 13 19 7 10 1013.0 1012.9 0.0
20/06:00pm 29.2 25.3 5.3 22 12.4 SW 15 22 8 12 1013.1 1013.0 0.0
20/05:30pm 29.6 25.8 5.6 22 12.6 SW 15 20 8 11 1013.3 1013.2 0.0
20/05:00pm 28.7 25.0 6.1 24 11.9 SW 15 24 8 13 1013.6 1013.5 0.0
20/04:30pm 29.0 24.5 7.0 25 11.8 SW 20 28 11 15 1013.8 1013.7 0.0
20/04:00pm 28.4 23.0 8.1 28 11.0 WSW 26 33 14 18 1014.2 1014.1 0.0
20/03:30pm 28.9 23.8 9.1 29 11.0 WSW 26 33 14 18 1014.3 1014.2 0.0
20/03:00pm 29.4 25.1 7.9 26 11.7 SW 20 35 11 19 1014.7 1014.6 0.0
20/02:30pm 28.4 24.5 7.1 26 11.4 SSW 17 24 9 13 1015.2 1015.1 0.0
20/02:00pm 28.6 25.6 6.1 24 11.8 SE 11 20 6 11 1015.7 1015.6 0.0
20/01:30pm 27.7 25.1 5.9 25 11.4 NW 9 15 5 8 1016.3 1016.2 0.0
20/01:00pm 27.3 25.3 6.1 26 11.1 S 6 13 3 7 1016.9 1016.8 0.0
20/12:30pm 26.0 22.9 5.6 27 10.5 E 11 19 6 10 1017.3 1017.2 0.0
20/12:00pm 25.3 22.2 5.5 28 10.1 ESE 11 20 6 11 1017.5 1017.4 0.0
20/11:30am 24.8 22.2 6.1 30 9.6 NE 9 17 5 9 1018.2 1018.1 0.0
20/11:00am 23.3 20.5 5.2 31 9.1 N 9 17 5 9 1018.6 1018.5 0.0
20/10:30am 22.5 20.0 6.7 36 8.1 NNW 9 19 5 10 1018.7 1018.6 0.0
20/10:00am 21.4 18.9 6.5 38 7.6 ENE 9 17 5 9 1019.0 1018.9 0.0
20/09:30am 20.4 18.3 8.1 45 6.4 N 9 15 5 8 1019.4 1019.3 0.0
20/09:00am 19.3 17.8 8.6 50 5.6 NW 6 9 3 5 1019.7 1019.6 0.0
20/08:30am 18.0 16.9 8.6 54 4.8 NNE 4 9 2 5 1019.5 1019.4 0.0
20/08:00am 17.1 16.5 8.8 58 4.3 N 2 7 1 4 1019.4 1019.3 0.0
20/07:30am 15.7 15.6 9.4 66 3.2 CALM 0 0 0 0 1019.4 1019.3 0.0
20/07:00am 13.9 13.7 9.1 73 2.4 CALM 0 0 0 0 1019.3 1019.2 0.0
20/06:30am 12.0 11.6 8.3 78 1.8 CALM 0 0 0 0 1019.1 1019.0 0.0
20/06:00am 12.4 11.5 7.7 73 2.3 SSE 2 6 1 3 1018.9 1018.8 0.0
20/05:30am 13.3 11.4 9.0 75 2.2 NE 9 13 5 7 1018.5 1018.4 0.0
20/05:00am 12.9 11.4 9.0 77 2.0 NE 7 9 4 5 1018.3 1018.2 0.0
20/04:30am 12.2 10.3 7.7 74 2.2 NNE 7 9 4 5 1018.1 1018.0 0.0
20/04:00am 13.4 12.0 8.9 74 2.3 N 6 7 3 4 1018.2 1018.1 0.0
20/03:30am 13.2 12.8 8.1 71 2.5 CALM 0 0 0 0 1018.4 1018.3 0.0
20/03:00am 14.0 13.7 8.8 71 2.6 CALM 0 0 0 0 1018.4 1018.3 0.0
20/02:30am 13.6 12.4 8.0 69 2.8 E 4 7 2 4 1018.7 1018.6 0.0
20/02:00am 14.3 12.6 7.6 64 3.3 ENE 6 7 3 4 1019.1 1019.0 0.0
20/01:30am 15.4 13.8 8.9 65 3.3 SE 7 11 4 6 1019.4 1019.3 0.0
20/01:00am 15.5 14.5 8.7 64 3.5 SE 4 7 2 4 1019.8 1019.7 0.0
20/12:30am 15.7 14.3 8.7 63 3.6 SE 6 9 3 5 1020.1 1020.0 0.0
20/12:00am 15.9 14.3 8.6 62 3.7 SE 7 9 4 5 1020.3 1020.2 0.0
 
Date/Time
CDT
Tmp

°C
App
Tmp
°C
Dew
Point
°C
Rel
Hum
%
Delta-T

°C
Wind Press
QNH
hPa
Press
MSL
hPa
Rain
since
9 am
mm
Dir
 
Spd
km/h
Gust
km/h
Spd
kts
Gust
kts
19/11:30pm 16.2 14.2 8.7 61 3.8 SE 9 11 5 6 1020.4 1020.3 0.0
19/11:00pm 16.5 13.7 8.7 60 4.0 SSE 13 19 7 10 1020.6 1020.5 0.0
19/10:30pm 17.0 13.8 8.4 57 4.4 SSE 15 19 8 10 1020.6 1020.5 0.0
19/10:00pm 17.7 14.5 8.3 54 4.8 SE 15 20 8 11 1020.4 1020.3 0.0
19/09:30pm 18.4 14.7 8.1 51 5.3 SE 17 24 9 13 1020.1 1020.0 0.0
19/09:00pm 18.9 15.3 9.7 55 4.9 S 19 24 10 13 1019.7 1019.6 0.0
19/08:30pm 19.2 14.3 9.9 55 4.9 S 26 35 14 19 1019.6 1019.5 0.0
19/08:00pm 19.7 14.1 10.1 54 5.2 S 30 35 16 19 1019.5 1019.4 0.0
19/07:30pm 20.6 15.4 10.1 51 5.7 S 28 35 15 19 1019.4 1019.3 0.0
19/07:00pm 21.2 15.6 10.1 49 6.0 S 30 35 16 19 1019.2 1019.1 0.0
19/06:30pm 21.6 15.6 8.8 44 6.8 SSW 30 37 16 20 1019.1 1019.0 0.0
19/06:00pm 21.9 15.8 8.1 41 7.2 SSW 30 37 16 20 1018.9 1018.8 0.0
19/05:30pm 22.5 16.7 7.9 39 7.6 SSW 28 35 15 19 1018.8 1018.7 0.0
19/05:00pm 22.6 16.6 7.2 37 8.0 SSW 28 37 15 20 1018.9 1018.8 0.0
19/04:30pm 22.6 17.3 8.3 40 7.5 SSW 26 35 14 19 1019.2 1019.1 0.0
19/04:00pm 22.5 17.2 8.6 41 7.4 SW 26 35 14 19 1019.4 1019.3 0.0
19/03:30pm 22.4 17.7 9.2 43 7.1 SSW 24 33 13 18 1019.7 1019.6 0.0
19/03:00pm 21.8 17.2 8.3 42 7.1 SW 22 30 12 16 1019.9 1019.8 0.0

Latest Capital City Observations: Canberra | Sydney | Melbourne | Brisbane | Adelaide | Perth | Hobart | Darwin

Other Formats:

Comma delimited format used in spreadsheet applications
http://www.bom.gov.au/fwo/IDS60901/IDS60901.95676.axf

JavaScript Object Notation format (JSON) in row-major order
http://www.bom.gov.au/fwo/IDS60901/IDS60901.95676.json